Shandaken, NY

11:00 AM EDT on April 21, 2015 (GMT -0400)
Sullivan County International | | Change Station
CLOSE
Current Station
Airport
Location: Monticello,
Elevation: 1404 ft
Nearby Weather Stations

Elev 1404 ft 41.70 °N, 74.80 °W | Updated 5 minutes ago

Overcast
Overcast
48 °F
Feels Like 48 °F
N
13
Wind Variable Wind from WNW

Today
High -- | Low -- °F
--% Chance of Precip.
Yesterday
High -- | Low -- °F
Precip. -- in
6:07 AM 7:45 PM
Waxing Crescent, 11% visible
Pressure 29.66 in
Visibility 10.0 miles
Clouds Few 2700 ft
Scattered Clouds 4400 ft
Mostly Cloudy 7000 ft
Dew Point 45 °F
Humidity 87%
Rainfall 0.00 in
Snow Depth Not available.
UV 4 out of 12
Pollen 3.50 out of 12
Air Quality Not available.
Flu Activity Widespread
METAR KMSV 211455Z AUTO 29011KT 10SM FEW027 SCT044 BKN070 09/07 A2966 RMK AO1 52017

More Conditions Fewer Conditions

Pressure 29.66 in
Visibility 10.0 miles
Clouds Few 2700 ft
Scattered Clouds 4400 ft
Mostly Cloudy 7000 ft
Dew Point 45 °F
Humidity 87%
Rainfall 0.00 in
Snow Depth Not available.
UV 4 out of 12
Pollen 3.50 out of 12
Air Quality Not available.
Flu Activity Widespread
METAR KMSV 211455Z AUTO 29011KT 10SM FEW027 SCT044 BKN070 09/07 A2966 RMK AO1 52017

More Conditions Fewer Conditions

10-Day Weather Forecast

Almanac

Astronomy

Apr. 21, 2015 Rise Set
Actual Time
Civil Twilight
Nautical Twilight
Astronomical Twilight
Moon
Length of Visible Light
Length of Day
Tomorrow will be .
, % of the Moon is Illuminated

Today's Extremes

State Highs State Lows

Community

WunderPhotos

Upload Photos

1,815,418 photos uploaded!

WunderBlogs® & News

Nearby

Air Quality

  Air Quality AQ Index Pollutant
Not available.

Snow Depth

Station Depth Elevation

Earthquake Activity

City Distance Mag. Time & Date
Minimum magnitude displayed is 2.5.

Coastal Water Temperatures

Place Temperature

Stations

Nearby Weather Stations

Station Location Temp. Windchill Dew Point Humidity Wind Precip. Elev Updated Type